Time;durP1;ratioP1;P1;durP2;ratioP2;P2;SDS_P1;SDS_P2;PMS_P1;PMS_P2;Temp;Humidity;BMP_temperature;BMP_pressure;BME280_temperature;BME280_humidity;BME280_pressure;Samples;Min_cycle;Max_cycle;Signal;HPM_P1;HPM_P2
2021/01/04 00:01:30;;;;;;;91.30;24.55;;;1.80;34.80;;;;;;5090904;28;20683;-68
2021/01/04 00:04:15;;;;;;;90.13;24.15;;;1.80;34.70;;;;;;5091065;28;20240;-68
2021/01/04 00:09:47;;;;;;;91.18;24.60;;;1.80;34.40;;;;;;5109452;27;20749;-68
2021/01/04 00:12:18;;;;;;;95.75;25.33;;;1.80;34.10;;;;;;5108861;28;20339;-69
2021/01/04 00:15:07;;;;;;;92.78;27.42;;;1.70;34.20;;;;;;5109245;28;20214;-69
2021/01/04 00:17:47;;;;;;;91.15;25.92;;;1.70;34.60;;;;;;5109261;28;20241;-69
2021/01/04 00:20:22;;;;;;;92.80;25.70;;;1.80;35.00;;;;;;5108895;28;20227;-69
2021/01/04 00:22:59;;;;;;;93.78;27.50;;;1.80;34.80;;;;;;5108885;28;20681;-69
2021/01/04 00:25:31;;;;;;;90.43;24.70;;;1.70;34.80;;;;;;5109288;28;20214;-69
2021/01/04 00:28:02;;;;;;;90.70;25.85;;;1.80;35.50;;;;;;5108856;28;20227;-69
2021/01/04 00:30:31;;;;;;;95.97;26.27;;;1.80;35.00;;;;;;5108698;28;20661;-69
2021/01/04 00:33:05;;;;;;;93.47;25.80;;;1.80;34.50;;;;;;5108739;28;20595;-69
2021/01/04 00:35:32;;;;;;;92.95;24.90;;;1.80;34.50;;;;;;5108836;28;20199;-69
2021/01/04 00:38:47;;;;;;;91.35;24.73;;;1.70;34.40;;;;;;5108836;28;20240;-69
2021/01/04 00:41:22;;;;;;;90.60;24.30;;;1.70;34.40;;;;;;5108533;28;20212;-69
2021/01/04 00:43:51;;;;;;;101.13;27.70;;;1.70;34.80;;;;;;5108502;28;20212;-69
2021/01/04 00:46:20;;;;;;;97.75;29.55;;;1.70;34.50;;;;;;5108852;28;20204;-69
2021/01/04 00:48:56;;;;;;;103.45;31.13;;;1.70;35.20;;;;;;5108409;28;20231;-69
2021/01/04 00:51:37;;;;;;;97.97;28.75;;;1.70;34.70;;;;;;5108314;28;20204;-69
2021/01/04 00:54:16;;;;;;;96.70;28.35;;;1.60;34.80;;;;;;5108299;28;20208;-69
2021/01/04 00:56:52;;;;;;;97.78;29.38;;;1.60;34.50;;;;;;5108786;28;20557;-69
2021/01/04 00:59:31;;;;;;;96.18;27.15;;;1.60;35.10;;;;;;5108357;28;20219;-69
2021/01/04 01:02:20;;;;;;;97.15;26.77;;;1.70;36.30;;;;;;5108047;28;20214;-68
2021/01/04 01:04:55;;;;;;;95.93;28.55;;;1.60;36.20;;;;;;5108219;28;20204;-68
2021/01/04 01:07:48;;;;;;;95.88;27.85;;;1.60;36.30;;;;;;5107856;28;20682;-68
2021/01/04 01:10:16;;;;;;;98.07;28.75;;;1.60;36.30;;;;;;5094351;28;20641;-69
2021/01/04 01:12:53;;;;;;;96.25;27.02;;;1.60;35.90;;;;;;5108055;28;20203;-69
2021/01/04 01:15:23;;;;;;;97.18;28.77;;;1.60;35.80;;;;;;5107879;28;20203;-68
2021/01/04 01:18:16;;;;;;;98.45;28.52;;;1.60;36.50;;;;;;5108079;28;20249;-68
2021/01/04 01:20:54;;;;;;;93.95;26.33;;;1.60;36.50;;;;;;5095110;28;20248;-69
2021/01/04 01:23:22;;;;;;;100.28;30.23;;;1.60;37.00;;;;;;5094657;28;20188;-69
2021/01/04 01:25:57;;;;;;;96.05;28.30;;;1.60;36.60;;;;;;5094374;28;20220;-68
2021/01/04 01:29:05;;;;;;;98.75;28.42;;;1.50;36.00;;;;;;5093337;28;20290;-68
2021/01/04 01:32:04;;;;;;;91.82;26.08;;;1.60;36.00;;;;;;5093291;28;20204;-68
2021/01/04 01:34:44;;;;;;;93.50;26.83;;;1.50;36.00;;;;;;5077021;28;20468;-68
2021/01/04 01:37:43;;;;;;;96.55;29.27;;;1.60;36.10;;;;;;5094060;28;20570;-68
2021/01/04 01:40:43;;;;;;;97.32;28.02;;;1.50;36.60;;;;;;5093912;28;20266;-68
2021/01/04 01:43:33;;;;;;;94.78;28.00;;;1.50;36.70;;;;;;5094064;28;20293;-69
2021/01/04 01:46:04;;;;;;;97.57;26.60;;;1.60;37.60;;;;;;5093893;28;20204;-69
2021/01/04 01:48:45;;;;;;;93.85;26.48;;;1.60;36.30;;;;;;5093746;28;20224;-69
2021/01/04 01:51:28;;;;;;;96.47;29.15;;;1.60;36.20;;;;;;5093849;28;20538;-69
2021/01/04 01:54:09;;;;;;;104.05;26.80;;;1.60;36.10;;;;;;5093938;28;20211;-68
2021/01/04 01:56:51;;;;;;;101.55;28.95;;;1.50;34.90;;;;;;5093666;28;20223;-69
2021/01/04 01:59:50;;;;;;;97.47;27.55;;;1.50;34.70;;;;;;5093701;28;20231;-69
2021/01/04 02:02:24;;;;;;;99.53;28.95;;;1.50;34.50;;;;;;5090972;28;20240;-69
2021/01/04 02:04:57;;;;;;;98.90;27.30;;;1.50;34.60;;;;;;5093373;28;20238;-69
2021/01/04 02:07:32;;;;;;;94.20;26.38;;;1.50;34.60;;;;;;5093823;22;20236;-68
2021/01/04 02:10:04;;;;;;;90.97;27.33;;;1.50;34.80;;;;;;5033595;28;20212;-67
2021/01/04 02:12:40;;;;;;;94.88;27.40;;;1.50;35.00;;;;;;5033951;28;20229;-67
2021/01/04 02:15:12;;;;;;;97.35;27.95;;;1.50;35.30;;;;;;5033230;28;20210;-67
2021/01/04 02:18:07;;;;;;;92.32;27.35;;;1.50;35.30;;;;;;5033727;28;20568;-68
2021/01/04 02:20:57;;;;;;;97.47;27.15;;;1.50;35.70;;;;;;5030674;28;20206;-67
2021/01/04 02:23:37;;;;;;;94.90;27.17;;;1.50;35.00;;;;;;5029766;28;20250;-67
2021/01/04 02:26:14;;;;;;;106.43;31.45;;;1.50;35.80;;;;;;5052383;28;20201;-67
2021/01/04 02:28:52;;;;;;;95.63;28.00;;;1.50;35.50;;;;;;5052853;28;20229;-68
2021/01/04 02:31:19;;;;;;;95.60;26.45;;;1.50;35.60;;;;;;5051208;28;20464;-67
2021/01/04 02:33:45;;;;;;;90.43;26.33;;;1.40;35.10;;;;;;5052749;28;20633;-67
2021/01/04 02:36:12;;;;;;;90.80;25.42;;;1.40;35.20;;;;;;5052369;28;20312;-68
2021/01/04 02:38:47;;;;;;;99.88;29.55;;;1.50;35.20;;;;;;5052957;28;20475;-68
2021/01/04 02:41:15;;;;;;;98.53;26.42;;;1.40;36.00;;;;;;5052216;28;20205;-67
2021/01/04 02:43:42;;;;;;;99.15;27.25;;;1.40;35.30;;;;;;5052397;28;20201;-67
2021/01/04 02:46:13;;;;;;;92.72;26.85;;;1.40;36.30;;;;;;5052276;28;20712;-67
2021/01/04 02:48:55;;;;;;;92.40;28.00;;;1.40;35.70;;;;;;5052822;28;20233;-67
2021/01/04 02:51:26;;;;;;;95.93;28.10;;;1.40;36.40;;;;;;5051916;28;20236;-67
2021/01/04 02:54:04;;;;;;;94.78;27.73;;;1.40;37.70;;;;;;5052634;28;20205;-68
2021/01/04 02:56:42;;;;;;;92.57;26.02;;;1.40;38.40;;;;;;5057685;28;20282;-67
2021/01/04 02:59:30;;;;;;;93.05;26.65;;;1.40;38.50;;;;;;5057153;28;20639;-66
2021/01/04 03:02:02;;;;;;;99.20;28.25;;;1.40;38.60;;;;;;5052006;28;20219;-67
2021/01/04 03:04:30;;;;;;;99.35;28.67;;;1.40;38.80;;;;;;5052313;28;20605;-67
2021/01/04 03:06:59;;;;;;;96.13;26.50;;;1.40;39.40;;;;;;5051711;28;20237;-67
2021/01/04 03:09:27;;;;;;;94.43;26.60;;;1.40;39.90;;;;;;5052147;28;20612;-67
2021/01/04 03:11:55;;;;;;;96.10;28.50;;;1.40;40.00;;;;;;5051933;28;20735;-67
2021/01/04 03:14:39;;;;;;;91.88;27.25;;;1.40;40.10;;;;;;5051790;28;20201;-67
2021/01/04 03:17:14;;;;;;;96.65;25.90;;;1.40;40.10;;;;;;5051912;28;20229;-67
2021/01/04 03:19:44;;;;;;;93.70;26.73;;;1.50;40.30;;;;;;5052182;28;20205;-67
2021/01/04 03:22:13;;;;;;;100.38;29.00;;;1.40;40.40;;;;;;5051704;28;20211;-67
2021/01/04 03:24:39;;;;;;;95.43;25.30;;;1.40;40.80;;;;;;5051932;28;20209;-67
2021/01/04 03:27:11;;;;;;;96.25;27.38;;;1.40;40.30;;;;;;5051913;28;20230;-67
2021/01/04 03:29:38;;;;;;;93.75;28.20;;;1.40;40.20;;;;;;5051698;28;20275;-67
2021/01/04 03:32:04;;;;;;;95.32;27.42;;;1.40;40.10;;;;;;5051933;28;20205;-67
2021/01/04 03:34:31;;;;;;;92.18;26.02;;;1.40;40.10;;;;;;5051863;28;20208;-68
2021/01/04 03:36:58;;;;;;;92.07;26.73;;;1.40;40.10;;;;;;5051619;28;20251;-67
2021/01/04 03:39:28;;;;;;;91.22;25.80;;;1.40;39.60;;;;;;5051456;28;20236;-67
2021/01/04 03:41:55;;;;;;;91.32;25.45;;;1.40;39.70;;;;;;5051180;28;20206;-67
2021/01/04 03:44:22;;;;;;;90.47;25.00;;;1.40;39.60;;;;;;5051299;28;20213;-67
2021/01/04 03:46:49;;;;;;;88.55;23.27;;;1.40;40.60;;;;;;5051745;28;20257;-67
2021/01/04 03:49:15;;;;;;;95.00;25.25;;;1.40;39.90;;;;;;5051613;28;20232;-67
2021/01/04 03:51:49;;;;;;;86.63;23.25;;;1.40;40.10;;;;;;5051191;28;20209;-67
2021/01/04 03:54:15;;;;;;;93.90;25.00;;;1.40;40.30;;;;;;5051372;28;20220;-67
2021/01/04 03:56:42;;;;;;;92.07;26.88;;;1.40;40.70;;;;;;5050999;28;20282;-67
2021/01/04 03:59:09;;;;;;;93.90;25.10;;;1.40;41.00;;;;;;5051143;28;20197;-66
2021/01/04 04:01:36;;;;;;;89.25;24.35;;;1.40;41.60;;;;;;5051485;28;20585;-67
2021/01/04 04:04:02;;;;;;;98.30;29.00;;;1.40;41.70;;;;;;5051729;28;20303;-68
2021/01/04 04:06:29;;;;;;;95.40;26.10;;;1.40;42.50;;;;;;5050850;28;20595;-67
2021/01/04 04:08:55;;;;;;;95.80;26.88;;;1.40;42.10;;;;;;5050910;28;20222;-66
2021/01/04 04:11:22;;;;;;;95.65;27.02;;;1.40;42.30;;;;;;5050951;28;20243;-67
2021/01/04 04:13:48;;;;;;;98.53;26.73;;;1.40;42.70;;;;;;5051237;28;20209;-68
2021/01/04 04:16:15;;;;;;;94.68;27.83;;;1.40;42.40;;;;;;5051405;28;20225;-68
2021/01/04 04:18:42;;;;;;;100.75;28.48;;;1.40;42.50;;;;;;5051427;28;20201;-67
2021/01/04 04:21:13;;;;;;;92.40;27.02;;;1.40;43.10;;;;;;5050840;28;20588;-67
2021/01/04 04:23:39;;;;;;;100.13;27.38;;;1.40;42.80;;;;;;5051082;28;20209;-68
2021/01/04 04:26:05;;;;;;;97.55;27.23;;;1.40;43.00;;;;;;5051533;28;20324;-67
2021/01/04 04:28:32;;;;;;;95.40;28.45;;;1.40;43.00;;;;;;5051240;28;20233;-68
2021/01/04 04:30:58;;;;;;;97.20;27.70;;;1.40;43.00;;;;;;5050474;28;20241;-66
2021/01/04 04:33:24;;;;;;;98.28;26.13;;;1.40;42.80;;;;;;5050798;28;20210;-67
2021/01/04 04:35:52;;;;;;;97.78;29.25;;;1.40;43.10;;;;;;5050548;28;20209;-66
2021/01/04 04:38:18;;;;;;;98.13;26.90;;;1.40;43.30;;;;;;5050397;28;20721;-67
2021/01/04 04:40:50;;;;;;;91.25;25.02;;;1.40;43.90;;;;;;5050355;28;20737;-67
2021/01/04 04:43:28;;;;;;;96.95;27.95;;;1.40;44.30;;;;;;5051305;28;20209;-67
2021/01/04 04:45:55;;;;;;;90.90;24.95;;;1.40;44.60;;;;;;5051171;28;20615;-68
2021/01/04 04:48:37;;;;;;;103.13;28.05;;;1.40;44.60;;;;;;5051042;28;20253;-67
2021/01/04 04:51:20;;;;;;;99.35;28.67;;;1.40;45.00;;;;;;5050691;28;20255;-67
2021/01/04 04:54:31;;;;;;;93.93;25.00;;;1.40;45.30;;;;;;5051645;28;20263;-67
2021/01/04 04:57:21;;;;;;;97.05;27.42;;;1.40;45.90;;;;;;5056199;28;20221;-67
2021/01/04 04:59:59;;;;;;;94.50;25.30;;;1.40;45.90;;;;;;5052348;28;20573;-67
2021/01/04 05:02:36;;;;;;;100.53;27.85;;;1.40;46.30;;;;;;5054548;28;20208;-67
2021/01/04 05:05:13;;;;;;;97.32;28.77;;;1.40;46.80;;;;;;5054469;28;20296;-68
2021/01/04 05:07:49;;;;;;;96.53;29.02;;;1.40;47.10;;;;;;5053862;28;20807;-67
2021/01/04 05:10:20;;;;;;;97.10;27.33;;;1.40;47.90;;;;;;5054402;28;20289;-67
2021/01/04 05:12:57;;;;;;;98.45;27.13;;;1.40;47.70;;;;;;5054609;28;20210;-67
2021/01/04 05:15:33;;;;;;;99.28;27.85;;;1.40;47.60;;;;;;5054343;28;20209;-66
2021/01/04 05:18:45;;;;;;;98.55;28.27;;;1.40;47.90;;;;;;5053909;28;20793;-67
2021/01/04 05:21:41;;;;;;;96.40;27.08;;;1.40;48.20;;;;;;5053640;28;20691;-67
2021/01/04 05:24:39;;;;;;;98.10;28.17;;;1.40;48.10;;;;;;5054184;28;20201;-67
2021/01/04 05:27:36;;;;;;;96.93;25.52;;;1.40;48.10;;;;;;5053591;28;20236;-67
2021/01/04 05:30:33;;;;;;;98.05;26.20;;;1.40;47.70;;;;;;5053434;28;20208;-67
2021/01/04 05:33:15;;;;;;;99.45;27.98;;;1.40;47.30;;;;;;5053584;28;20676;-67
2021/01/04 05:35:44;;;;;;;98.18;27.92;;;1.40;47.20;;;;;;5053295;28;20205;-67
2021/01/04 05:38:17;;;;;;;94.78;26.23;;;1.40;47.00;;;;;;5053951;28;20599;-67
2021/01/04 05:41:11;;;;;;;97.32;26.55;;;1.30;46.70;;;;;;5053203;28;20205;-67
2021/01/04 05:43:48;;;;;;;90.35;23.77;;;1.40;47.20;;;;;;5053663;28;20209;-67
2021/01/04 05:46:19;;;;;;;94.57;26.98;;;1.40;48.00;;;;;;5053557;28;20239;-67
2021/01/04 05:48:55;;;;;;;94.03;25.73;;;1.40;47.90;;;;;;5053554;28;20604;-67
2021/01/04 05:51:26;;;;;;;96.32;27.50;;;1.40;47.20;;;;;;5052912;28;20223;-67
2021/01/04 05:53:52;;;;;;;93.53;25.77;;;1.40;46.50;;;;;;5053798;28;20206;-67
2021/01/04 05:56:21;;;;;;;94.80;27.15;;;1.40;47.10;;;;;;5053782;28;20222;-67
2021/01/04 05:58:48;;;;;;;95.30;26.67;;;1.40;46.50;;;;;;5053852;28;20227;-67
2021/01/04 06:01:21;;;;;;;95.80;27.00;;;1.40;46.70;;;;;;5052972;28;20210;-67
2021/01/04 06:03:55;;;;;;;96.57;26.98;;;1.40;46.70;;;;;;5053456;28;20680;-67
2021/01/04 06:06:27;;;;;;;95.20;26.42;;;1.40;46.50;;;;;;5052676;28;20299;-67
2021/01/04 06:09:05;;;;;;;99.53;28.55;;;1.40;46.70;;;;;;5053432;28;20312;-68
2021/01/04 06:11:32;;;;;;;94.63;26.13;;;1.40;47.00;;;;;;5053437;28;20282;-67
2021/01/04 06:14:03;;;;;;;100.82;28.10;;;1.40;46.00;;;;;;5053114;28;20210;-67
2021/01/04 06:16:30;;;;;;;97.55;28.23;;;1.40;45.70;;;;;;5053469;28;20641;-67
2021/01/04 06:19:08;;;;;;;94.40;25.85;;;1.30;45.40;;;;;;5053324;28;20251;-67
2021/01/04 06:21:52;;;;;;;95.43;27.65;;;1.40;45.90;;;;;;5052721;28;20205;-67
2021/01/04 06:24:25;;;;;;;100.18;27.83;;;1.30;45.40;;;;;;5053056;28;20205;-68
2021/01/04 06:26:55;;;;;;;95.97;25.10;;;1.30;46.20;;;;;;5053413;28;20229;-67
2021/01/04 06:29:40;;;;;;;95.80;24.88;;;1.30;46.10;;;;;;5052796;28;20237;-67
2021/01/04 06:32:14;;;;;;;98.22;26.25;;;1.30;46.70;;;;;;5053030;28;20205;-67
2021/01/04 06:34:45;;;;;;;95.95;26.52;;;1.30;46.70;;;;;;5052757;28;20213;-67
2021/01/04 06:37:17;;;;;;;97.30;25.98;;;1.30;46.50;;;;;;5052278;28;20261;-67
2021/01/04 06:39:43;;;;;;;93.15;24.92;;;1.30;46.70;;;;;;5052930;28;20202;-67
2021/01/04 06:42:18;;;;;;;95.60;25.33;;;1.30;46.70;;;;;;5052865;28;20213;-68
2021/01/04 06:45:01;;;;;;;99.32;27.88;;;1.30;46.70;;;;;;5052941;28;20683;-67
2021/01/04 06:47:49;;;;;;;98.32;26.63;;;1.30;46.90;;;;;;5052871;28;20255;-68
2021/01/04 06:50:23;;;;;;;93.07;26.23;;;1.30;47.30;;;;;;5044422;28;20668;-68
2021/01/04 06:53:25;;;;;;;95.43;26.33;;;1.30;47.20;;;;;;5052296;28;20241;-68
2021/01/04 06:56:22;;;;;;;97.93;26.75;;;1.30;47.20;;;;;;5052588;28;20209;-68
2021/01/04 06:59:23;;;;;;;96.28;25.45;;;1.30;47.00;;;;;;5022454;28;20198;-67
2021/01/04 07:02:25;;;;;;;93.65;26.35;;;1.40;48.10;;;;;;5052141;28;20205;-67
2021/01/04 07:05:28;;;;;;;92.28;23.63;;;1.30;47.00;;;;;;5052634;28;20205;-67
2021/01/04 07:08:10;;;;;;;96.72;25.92;;;1.30;47.30;;;;;;5051929;28;20239;-66
2021/01/04 07:11:09;;;;;;;93.47;25.40;;;1.30;47.80;;;;;;5051910;28;20212;-67
2021/01/04 07:13:49;;;;;;;93.00;24.10;;;1.30;47.10;;;;;;5041108;28;20205;-67
2021/01/04 07:17:00;;;;;;;99.40;25.23;;;1.30;47.20;;;;;;5052162;28;20229;-67
2021/01/04 07:19:43;;;;;;;94.60;25.23;;;1.30;47.30;;;;;;4990314;28;20215;-66
2021/01/04 07:22:18;;;;;;;94.70;24.08;;;1.30;47.40;;;;;;4990253;28;20211;-66
2021/01/04 07:24:59;;;;;;;90.00;25.00;;;1.30;47.80;;;;;;5032961;28;20208;-67
2021/01/04 07:27:49;;;;;;;101.13;27.23;;;1.30;47.80;;;;;;5052204;28;20235;-66
2021/01/04 07:30:26;;;;;;;97.80;26.27;;;1.30;48.20;;;;;;5049493;28;20288;-67
2021/01/04 07:33:03;;;;;;;94.63;27.95;;;1.30;48.20;;;;;;5051694;28;20258;-67
2021/01/04 07:35:36;;;;;;;94.38;26.23;;;1.30;48.30;;;;;;5051749;28;20217;-67
2021/01/04 07:38:18;;;;;;;99.15;26.52;;;1.40;48.90;;;;;;5051810;28;20283;-67
2021/01/04 07:40:59;;;;;;;95.20;24.95;;;1.40;48.90;;;;;;5051461;28;20209;-67
2021/01/04 07:44:08;;;;;;;100.78;27.42;;;1.40;48.80;;;;;;5051757;28;20296;-67
2021/01/04 07:47:11;;;;;;;95.95;26.88;;;1.40;49.20;;;;;;5051419;28;20222;-67
2021/01/04 07:50:22;;;;;;;97.43;26.52;;;1.40;48.90;;;;;;5041093;28;20278;-67
2021/01/04 07:53:20;;;;;;;98.43;26.85;;;1.40;48.80;;;;;;5051331;28;20201;-67
2021/01/04 07:56:17;;;;;;;95.38;25.30;;;1.40;49.50;;;;;;5051312;28;20262;-67
2021/01/04 07:59:20;;;;;;;94.35;24.80;;;1.50;50.10;;;;;;5051649;28;20606;-67
2021/01/04 08:02:22;;;;;;;97.22;25.55;;;1.50;50.40;;;;;;5051070;28;20209;-67
2021/01/04 08:05:11;;;;;;;97.97;26.00;;;1.50;50.00;;;;;;5051663;28;20194;-67
2021/01/04 08:08:11;;;;;;;99.50;29.08;;;1.50;50.40;;;;;;5051664;28;20294;-66
2021/01/04 08:11:03;;;;;;;98.65;28.13;;;1.60;50.60;;;;;;5050913;28;20209;-67
2021/01/04 08:14:10;;;;;;;100.20;25.92;;;1.60;50.30;;;;;;5051375;28;20213;-67
2021/01/04 08:16:42;;;;;;;98.95;25.17;;;1.60;50.00;;;;;;5051286;28;20225;-67
2021/01/04 08:19:11;;;;;;;93.78;24.60;;;1.60;49.90;;;;;;5050860;28;20202;-67
2021/01/04 08:21:48;;;;;;;97.72;26.05;;;1.60;50.60;;;;;;5051101;28;20201;-67
2021/01/04 08:24:23;;;;;;;98.00;26.73;;;1.70;50.60;;;;;;5051093;28;20205;-67
2021/01/04 08:27:11;;;;;;;98.00;27.25;;;1.70;50.70;;;;;;5051606;28;20228;-67
2021/01/04 08:29:47;;;;;;;95.40;27.40;;;1.80;50.60;;;;;;5051849;28;20759;-66
2021/01/04 08:32:20;;;;;;;94.18;24.85;;;1.80;50.50;;;;;;5055142;28;20527;-67
2021/01/04 08:34:47;;;;;;;100.88;27.02;;;1.80;50.20;;;;;;5055113;28;20201;-67
2021/01/04 08:37:18;;;;;;;106.55;27.20;;;1.80;49.60;;;;;;5054988;28;20225;-67
2021/01/04 08:39:49;;;;;;;101.10;27.23;;;1.80;49.20;;;;;;5054826;28;20206;-67
2021/01/04 08:42:29;;;;;;;101.05;27.88;;;1.80;48.50;;;;;;5054727;28;20212;-67
2021/01/04 08:44:59;;;;;;;95.65;25.95;;;1.80;47.80;;;;;;5054770;28;20672;-67
2021/01/04 08:47:33;;;;;;;96.78;25.73;;;1.90;48.00;;;;;;5054705;28;20236;-66
2021/01/04 08:50:31;;;;;;;92.30;25.17;;;1.90;48.70;;;;;;5054640;28;20706;-67
2021/01/04 08:53:10;;;;;;;99.78;27.60;;;2.00;48.40;;;;;;5054452;28;20209;-67
2021/01/04 08:55:37;;;;;;;98.07;26.40;;;2.00;48.20;;;;;;5054720;28;20215;-67
2021/01/04 08:58:22;;;;;;;99.95;28.30;;;2.10;48.00;;;;;;5055520;28;20259;-67
2021/01/04 09:00:59;;;;;;;93.63;26.98;;;2.10;47.50;;;;;;5057519;28;20625;-68
2021/01/04 09:03:30;;;;;;;100.93;28.35;;;2.20;47.10;;;;;;5054911;28;20208;-66
2021/01/04 09:05:57;;;;;;;96.68;24.80;;;2.20;45.60;;;;;;5054845;28;20217;-66
2021/01/04 09:08:33;;;;;;;102.88;27.77;;;2.20;44.10;;;;;;5054965;28;20221;-66
2021/01/04 09:11:06;;;;;;;95.88;26.20;;;2.20;42.10;;;;;;5054556;28;20569;-66
2021/01/04 09:13:36;;;;;;;93.88;25.83;;;2.20;46.30;;;;;;5040173;28;20202;-66
2021/01/04 09:16:17;;;;;;;95.40;26.67;;;2.20;52.30;;;;;;5035451;28;20202;-66
2021/01/04 09:18:47;;;;;;;93.38;25.15;;;2.20;36.90;;;;;;5035614;28;20237;-67
2021/01/04 09:21:33;;;;;;;96.43;27.27;;;2.20;35.60;;;;;;5034986;28;20209;-66
2021/01/04 09:24:17;;;;;;;91.53;25.65;;;2.20;33.00;;;;;;5035069;28;20202;-65
2021/01/04 09:26:46;;;;;;;100.28;28.50;;;2.20;30.30;;;;;;5035323;28;20226;-66
2021/01/04 09:29:25;;;;;;;97.97;26.20;;;2.20;27.20;;;;;;5034862;28;20229;-67
2021/01/04 09:31:54;;;;;;;90.28;25.73;;;2.20;24.60;;;;;;5035002;28;20614;-66
2021/01/04 09:34:21;;;;;;;94.30;25.90;;;2.20;23.40;;;;;;5035063;28;20714;-66
2021/01/04 09:36:48;;;;;;;90.47;25.38;;;2.20;22.60;;;;;;5035466;28;20252;-66
2021/01/04 09:39:15;;;;;;;95.05;26.77;;;2.20;22.90;;;;;;5034892;28;20210;-65
2021/01/04 09:41:42;;;;;;;91.43;24.77;;;2.30;22.40;;;;;;5034346;28;20205;-66
2021/01/04 09:44:12;;;;;;;100.43;29.45;;;2.30;22.50;;;;;;5034842;28;20202;-66
2021/01/04 09:46:45;;;;;;;104.90;31.67;;;2.40;22.60;;;;;;5034612;28;20230;-65
2021/01/04 09:49:16;;;;;;;95.97;26.70;;;2.40;21.70;;;;;;5035619;28;20229;-67
2021/01/04 09:51:47;;;;;;;95.13;27.02;;;2.50;21.00;;;;;;5035226;28;20209;-67
2021/01/04 09:54:17;;;;;;;89.40;25.42;;;2.50;20.60;;;;;;5035432;28;20348;-66
2021/01/04 09:56:44;;;;;;;100.40;29.00;;;2.60;20.80;;;;;;5035001;28;20261;-67
2021/01/04 09:59:18;;;;;;;93.05;26.25;;;2.70;18.40;;;;;;5035054;28;20212;-66
2021/01/04 10:01:48;;;;;;;87.38;23.98;;;2.70;17.20;;;;;;5035581;28;20695;-65
2021/01/04 10:04:24;;;;;;;89.35;24.23;;;2.80;16.00;;;;;;5035332;28;20341;-66
2021/01/04 10:06:51;;;;;;;89.82;25.65;;;2.80;14.90;;;;;;5035364;28;20237;-66
2021/01/04 10:09:18;;;;;;;88.72;24.92;;;2.80;13.30;;;;;;5035459;28;20728;-66
2021/01/04 10:11:47;;;;;;;94.75;27.80;;;2.90;13.20;;;;;;5034847;28;20217;-65
2021/01/04 10:14:16;;;;;;;94.68;27.70;;;2.90;8.00;;;;;;5034420;28;20202;-66
2021/01/04 10:16:44;;;;;;;88.78;24.15;;;2.90;5.70;;;;;;5034409;28;20280;-67
2021/01/04 10:19:16;;;;;;;98.07;27.60;;;2.90;5.10;;;;;;5034460;28;20218;-66
2021/01/04 10:21:49;;;;;;;89.80;26.50;;;3.00;5.00;;;;;;5033797;28;20217;-65
2021/01/04 10:24:20;;;;;;;89.43;24.38;;;3.00;5.20;;;;;;5034001;28;20229;-66
2021/01/04 10:26:48;;;;;;;95.80;28.25;;;3.00;4.50;;;;;;5033929;28;20234;-66
2021/01/04 10:29:18;;;;;;;92.53;25.73;;;3.10;2.70;;;;;;5033245;28;20234;-65
2021/01/04 10:31:44;;;;;;;95.65;26.00;;;3.10;1.60;;;;;;5032983;28;20202;-67
2021/01/04 10:34:13;;;;;;;87.57;24.95;;;3.10;1.00;;;;;;5033313;28;20210;-66
2021/01/04 10:36:42;;;;;;;100.47;30.52;;;3.10;1.00;;;;;;5033359;28;20226;-65
2021/01/04 10:39:17;;;;;;;91.15;26.35;;;3.10;1.00;;;;;;5032728;28;20221;-68
2021/01/04 10:41:44;;;;;;;88.82;25.88;;;3.10;1.00;;;;;;5033056;28;20210;-66
2021/01/04 10:44:13;;;;;;;87.05;22.02;;;3.20;1.00;;;;;;5047102;28;20819;-67
2021/01/04 10:46:43;;;;;;;93.95;27.67;;;3.20;1.00;;;;;;5052723;28;20265;-66
2021/01/04 10:49:12;;;;;;;90.18;24.70;;;3.20;1.00;;;;;;5052313;28;20257;-66
2021/01/04 10:51:40;;;;;;;88.32;24.63;;;3.10;1.00;;;;;;5052173;28;20216;-68
2021/01/04 10:54:15;;;;;;;91.47;25.27;;;3.20;1.00;;;;;;5052265;28;20677;-67
2021/01/04 10:56:46;;;;;;;89.18;23.48;;;3.20;1.00;;;;;;5052508;28;20282;-67
2021/01/04 10:59:22;;;;;;;90.18;25.08;;;3.20;1.00;;;;;;5052611;28;20807;-67
2021/01/04 11:01:51;;;;;;;86.65;23.00;;;3.30;1.00;;;;;;5054249;28;20213;-67
2021/01/04 11:04:20;;;;;;;87.70;26.02;;;3.30;1.00;;;;;;5053641;28;20205;-67
2021/01/04 11:06:58;;;;;;;90.47;25.63;;;3.30;1.00;;;;;;5052689;28;20245;-67
2021/01/04 11:09:28;;;;;;;81.97;20.13;;;3.30;1.00;;;;;;5052523;28;20251;-69
2021/01/04 11:12:07;;;;;;;89.95;23.77;;;3.40;1.00;;;;;;5051892;28;20213;-67
2021/01/04 11:14:33;;;;;;;86.70;23.60;;;3.40;1.00;;;;;;5052490;28;20205;-67
2021/01/04 11:17:18;;;;;;;86.30;23.33;;;3.40;1.00;;;;;;5052369;28;20264;-67
2021/01/04 11:19:46;;;;;;;84.05;20.15;;;3.40;1.00;;;;;;5052132;28;20398;-67
2021/01/04 11:22:25;;;;;;;85.82;23.58;;;3.40;1.00;;;;;;5052169;28;20292;-66
2021/01/04 11:24:52;;;;;;;86.57;23.73;;;3.40;1.00;;;;;;5039007;28;20217;-66
2021/01/04 11:27:19;;;;;;;87.03;21.75;;;3.40;1.00;;;;;;5032291;28;20283;-67
2021/01/04 11:29:47;;;;;;;83.15;21.35;;;3.40;1.00;;;;;;5032122;28;20236;-66
2021/01/04 11:32:15;;;;;;;83.03;21.50;;;3.40;1.00;;;;;;5032396;28;20207;-67
2021/01/04 11:34:43;;;;;;;83.20;20.88;;;3.50;1.00;;;;;;5032551;28;20234;-69
2021/01/04 11:37:10;;;;;;;84.45;21.35;;;3.50;1.00;;;;;;5032611;28;20238;-68
2021/01/04 11:39:37;;;;;;;90.00;23.70;;;3.50;1.00;;;;;;5032885;28;20630;-67
2021/01/04 11:42:04;;;;;;;81.00;20.75;;;3.50;1.00;;;;;;5031444;28;20202;-67
2021/01/04 11:44:30;;;;;;;79.78;18.75;;;3.50;1.00;;;;;;5032007;28;20210;-68
2021/01/04 11:46:56;;;;;;;81.40;19.65;;;3.40;1.00;;;;;;5031713;28;20320;-68
2021/01/04 11:49:24;;;;;;;78.00;17.90;;;3.40;1.00;;;;;;5031825;28;20273;-66
2021/01/04 11:51:50;;;;;;;76.38;17.75;;;3.30;1.00;;;;;;5031828;28;20221;-67
2021/01/04 11:54:17;;;;;;;78.20;17.60;;;3.30;1.00;;;;;;5031958;28;20202;-67
2021/01/04 11:56:43;;;;;;;78.85;17.67;;;3.20;1.00;;;;;;5031805;28;20234;-67
2021/01/04 11:59:10;;;;;;;78.18;19.52;;;3.20;1.00;;;;;;5031661;28;20692;-66
2021/01/04 12:01:37;;;;;;;79.55;17.73;;;3.20;1.00;;;;;;5031421;28;20238;-67
2021/01/04 12:04:04;;;;;;;76.10;16.77;;;3.10;1.00;;;;;;5031345;28;20328;-67
2021/01/04 12:06:31;;;;;;;78.07;19.27;;;3.10;1.00;;;;;;5031577;28;20234;-67
2021/01/04 12:08:57;;;;;;;78.40;18.13;;;3.10;1.00;;;;;;5031634;28;20643;-67
2021/01/04 12:11:24;;;;;;;78.18;18.98;;;3.10;1.00;;;;;;5031283;28;20210;-66
2021/01/04 12:13:51;;;;;;;80.15;20.90;;;3.10;1.00;;;;;;5031596;28;20210;-67
2021/01/04 12:16:18;;;;;;;78.07;18.83;;;3.10;1.00;;;;;;5031572;28;20226;-66
2021/01/04 12:18:45;;;;;;;78.13;18.25;;;3.10;1.00;;;;;;5031377;28;20204;-66
2021/01/04 12:21:13;;;;;;;76.60;16.85;;;3.10;1.00;;;;;;5031221;28;20289;-67
2021/01/04 12:23:40;;;;;;;73.05;16.40;;;3.00;1.00;;;;;;5031458;28;20674;-68
2021/01/04 12:26:10;;;;;;;75.07;17.33;;;3.00;1.00;;;;;;5031417;28;20231;-66
2021/01/04 12:28:37;;;;;;;75.90;16.70;;;2.90;1.00;;;;;;5031365;28;20241;-67
2021/01/04 12:31:05;;;;;;;78.38;16.55;;;2.90;1.00;;;;;;5031348;28;20217;-67
2021/01/04 12:33:32;;;;;;;74.88;16.20;;;2.90;1.00;;;;;;5031900;28;20210;-67
2021/01/04 12:35:58;;;;;;;77.95;16.40;;;2.90;1.00;;;;;;5031619;28;20288;-66
2021/01/04 12:38:24;;;;;;;75.90;14.88;;;2.90;1.00;;;;;;5031413;28;20210;-67
2021/01/04 12:40:52;;;;;;;76.38;16.63;;;2.80;1.00;;;;;;5031237;28;20229;-67
2021/01/04 12:43:18;;;;;;;75.45;18.02;;;2.80;1.00;;;;;;5031049;28;20213;-67
2021/01/04 12:45:45;;;;;;;79.30;18.83;;;2.80;1.00;;;;;;5030966;28;20618;-66
2021/01/04 12:48:11;;;;;;;75.25;17.45;;;2.70;1.00;;;;;;5031547;28;20222;-66
2021/01/04 12:50:37;;;;;;;74.53;16.55;;;2.80;1.00;;;;;;5031212;28;20241;-67
2021/01/04 12:53:04;;;;;;;75.63;17.20;;;2.80;1.00;;;;;;5031185;28;20291;-66
2021/01/04 12:55:30;;;;;;;80.75;16.95;;;2.70;1.00;;;;;;5031171;28;20218;-66
2021/01/04 12:58:04;;;;;;;74.22;16.25;;;2.70;1.00;;;;;;5031089;28;20238;-67
2021/01/04 13:00:31;;;;;;;74.63;15.35;;;2.70;1.00;;;;;;5030645;28;20197;-66
2021/01/04 13:02:57;;;;;;;76.22;16.75;;;2.80;1.00;;;;;;5032324;28;20643;-67
2021/01/04 13:05:23;;;;;;;75.47;16.20;;;2.70;1.00;;;;;;5033533;28;20210;-66
2021/01/04 13:07:49;;;;;;;74.53;15.70;;;2.70;1.00;;;;;;5031378;28;20238;-67
2021/01/04 13:10:16;;;;;;;76.13;17.48;;;2.70;1.00;;;;;;5031487;28;20226;-66
2021/01/04 13:12:43;;;;;;;78.78;17.83;;;2.70;1.00;;;;;;5031081;28;20216;-67
2021/01/04 13:15:12;;;;;;;78.57;17.83;;;2.70;1.00;;;;;;5031914;28;20622;-66
2021/01/04 13:17:38;;;;;;;75.47;17.13;;;2.70;1.00;;;;;;5035267;28;20308;-66
2021/01/04 13:20:06;;;;;;;74.35;16.65;;;2.60;1.00;;;;;;5035067;28;20260;-67
2021/01/04 13:22:33;;;;;;;73.70;16.05;;;2.60;1.00;;;;;;5034932;28;20206;-67